createdAt,value
2018-08-25T00:02:39.088Z,10.33
2018-08-25T00:07:42.585Z,9.77
2018-08-25T00:12:46.047Z,10.27
2018-08-25T00:17:50.465Z,9.53
2018-08-25T00:22:53.900Z,10.33
2018-08-25T00:27:57.350Z,10.90
2018-08-25T00:33:00.794Z,11.57
2018-08-25T00:38:04.240Z,8.73
2018-08-25T00:43:08.032Z,9.23
2018-08-25T00:48:11.500Z,9.37
2018-08-25T00:53:15.093Z,9.23
2018-08-25T00:58:18.580Z,9.57
2018-08-25T01:03:22.090Z,9.93
2018-08-25T01:08:25.514Z,7.90
2018-08-25T01:13:28.976Z,9.20
2018-08-25T01:18:32.429Z,9.03
2018-08-25T01:23:35.887Z,9.67
2018-08-25T01:28:39.324Z,10.53
2018-08-25T01:33:42.739Z,9.37
2018-08-25T01:38:46.179Z,9.00
2018-08-25T01:43:49.644Z,8.13
2018-08-25T01:48:53.075Z,10.67
2018-08-25T01:53:56.580Z,7.97
2018-08-25T01:59:00.081Z,8.57
2018-08-25T02:04:03.583Z,8.83
2018-08-25T02:09:10.176Z,9.70
2018-08-25T02:14:13.597Z,9.40
2018-08-25T02:19:17.020Z,8.60
2018-08-25T02:24:20.463Z,9.77
2018-08-25T02:29:23.873Z,8.97
2018-08-25T02:34:27.330Z,7.93
2018-08-25T02:39:30.758Z,7.93
2018-08-25T02:44:34.259Z,8.43
2018-08-25T02:49:37.776Z,7.77
2018-08-25T02:54:41.211Z,8.37
2018-08-25T02:59:44.668Z,10.37
2018-08-25T03:04:48.136Z,8.57
2018-08-25T03:09:51.589Z,7.97
2018-08-25T03:14:55.090Z,11.43
2018-08-25T03:19:58.525Z,7.70
2018-08-25T03:25:01.932Z,6.83
2018-08-25T03:30:05.413Z,7.67
2018-08-25T03:35:08.868Z,7.53
2018-08-25T03:40:12.281Z,8.27
2018-08-25T03:45:15.725Z,7.90
2018-08-25T03:50:19.145Z,10.07
2018-08-25T03:55:22.578Z,9.07
2018-08-25T04:00:26.005Z,7.83
2018-08-25T04:05:29.473Z,9.23
2018-08-25T04:10:32.899Z,8.67
2018-08-25T04:15:36.313Z,9.33
2018-08-25T04:20:39.785Z,10.60
2018-08-25T04:25:43.213Z,8.70
2018-08-25T04:30:46.640Z,8.20
2018-08-25T04:35:50.054Z,8.47
2018-08-25T04:40:53.477Z,9.60
2018-08-25T04:45:56.887Z,8.23
2018-08-25T04:51:00.309Z,8.80
2018-08-25T04:56:03.718Z,8.63
2018-08-25T05:01:07.154Z,9.60
2018-08-25T05:06:10.685Z,8.50
2018-08-25T05:11:14.129Z,7.67
2018-08-25T05:16:17.572Z,9.67
2018-08-25T05:21:21.017Z,10.57
2018-08-25T05:26:24.425Z,8.77
2018-08-25T05:31:27.852Z,9.47
2018-08-25T05:36:31.579Z,9.27
2018-08-25T05:41:35.012Z,9.20
2018-08-25T05:46:45.041Z,8.47
2018-08-25T05:51:48.449Z,9.00
2018-08-25T05:56:51.932Z,7.70
2018-08-25T06:01:55.377Z,7.70
2018-08-25T06:06:58.817Z,8.37
2018-08-25T06:12:02.245Z,7.03
2018-08-25T06:17:05.952Z,8.47
2018-08-25T06:22:09.373Z,9.97
2018-08-25T06:27:12.827Z,8.70
2018-08-25T06:32:16.231Z,8.77
2018-08-25T06:37:19.655Z,7.77
2018-08-25T06:42:29.629Z,8.13
2018-08-25T06:47:33.096Z,8.73
2018-08-25T06:52:36.544Z,11.22
2018-08-25T06:57:39.959Z,8.98
2018-08-25T07:02:43.409Z,8.83
2018-08-25T07:07:46.949Z,11.45
2018-08-25T07:12:50.407Z,6.60
2018-08-25T07:17:53.836Z,10.98
2018-08-25T07:22:57.283Z,8.65
2018-08-25T07:28:00.730Z,5.67
2018-08-25T07:33:04.177Z,8.20
2018-08-25T07:38:07.727Z,8.78
2018-08-25T07:43:11.165Z,7.72
2018-08-25T07:48:14.614Z,8.30
2018-08-25T07:53:18.081Z,5.37
2018-08-25T07:58:21.559Z,7.50
2018-08-25T08:03:25.037Z,6.33
2018-08-25T08:08:28.579Z,6.60
2018-08-25T08:13:31.973Z,10.00
2018-08-25T08:18:35.526Z,17.20
2018-08-25T08:23:38.955Z,6.40
2018-08-25T08:28:42.463Z,11.97
2018-08-25T08:33:45.883Z,8.78
2018-08-25T08:38:49.388Z,7.00
2018-08-25T08:43:52.876Z,5.20
2018-08-25T08:48:56.371Z,5.42
2018-08-25T08:53:59.829Z,5.83
2018-08-25T08:59:03.281Z,9.10
2018-08-25T09:04:06.828Z,8.53
2018-08-25T09:09:10.703Z,8.18
2018-08-25T09:14:14.146Z,7.85
2018-08-25T09:19:17.642Z,4.12
2018-08-25T09:24:21.070Z,9.70
2018-08-25T09:29:24.549Z,7.85
2018-08-25T09:34:28.009Z,9.45
2018-08-25T09:39:31.511Z,10.28
2018-08-25T09:44:34.954Z,8.58
2018-08-25T09:49:38.422Z,6.95
2018-08-25T09:54:41.913Z,5.25
2018-08-25T09:59:45.425Z,8.00
2018-08-25T10:04:48.915Z,6.30
2018-08-25T10:09:52.374Z,7.33
2018-08-25T10:14:55.863Z,5.28
2018-08-25T10:19:59.333Z,6.20
2018-08-25T10:25:02.798Z,5.75
2018-08-25T10:30:07.381Z,6.42
2018-08-25T10:35:10.870Z,6.20
2018-08-25T10:40:14.322Z,3.47
2018-08-25T10:45:17.772Z,3.27
2018-08-25T10:50:21.282Z,3.87
2018-08-25T10:55:24.769Z,4.25
2018-08-25T11:00:28.323Z,4.72
2018-08-25T11:05:31.742Z,5.35
2018-08-25T11:10:35.260Z,4.35
2018-08-25T11:15:38.729Z,4.22
2018-08-25T11:20:42.203Z,3.17
2018-08-25T11:25:45.701Z,4.42
2018-08-25T11:30:49.173Z,5.33
2018-08-25T11:35:52.681Z,4.65
2018-08-25T11:40:56.165Z,4.12
2018-08-25T11:45:59.663Z,5.03
2018-08-25T11:51:03.186Z,3.60
2018-08-25T11:56:06.706Z,7.12
2018-08-25T12:01:10.210Z,4.45
2018-08-25T12:06:13.753Z,4.40
2018-08-25T12:11:17.255Z,4.83
2018-08-25T12:16:20.831Z,2.77
2018-08-25T12:21:24.265Z,2.98
2018-08-25T12:26:27.789Z,4.87
2018-08-25T12:31:31.240Z,2.83
2018-08-25T12:36:34.747Z,7.20
2018-08-25T12:41:38.250Z,4.70
2018-08-25T12:46:41.732Z,6.03
2018-08-25T12:51:45.292Z,3.83
2018-08-25T12:56:49.705Z,2.85
2018-08-25T13:01:53.186Z,3.40
2018-08-25T13:06:56.787Z,5.20
2018-08-25T13:17:21.612Z,4.20
2018-08-25T13:22:25.122Z,5.03
2018-08-25T13:27:30.397Z,3.73
2018-08-25T13:37:48.423Z,3.85
2018-08-25T13:42:51.896Z,6.92
2018-08-25T13:47:55.390Z,3.83
2018-08-25T13:52:59.266Z,2.77
2018-08-25T13:58:02.773Z,3.52
2018-08-25T14:03:06.429Z,5.65
2018-08-25T14:08:10.041Z,3.77
2018-08-25T14:13:13.482Z,2.37
2018-08-25T14:18:17.031Z,2.98
2018-08-25T14:23:21.573Z,4.75
2018-08-25T14:28:25.056Z,5.20
2018-08-25T14:33:28.583Z,3.42
2018-08-25T14:38:33.845Z,5.00
2018-08-25T14:43:37.288Z,4.80
2018-08-25T14:48:40.780Z,4.08
2018-08-25T14:53:44.249Z,3.47
2018-08-25T14:58:47.818Z,2.45
2018-08-25T15:03:51.394Z,2.95
2018-08-25T15:08:54.966Z,2.47
2018-08-25T15:14:01.717Z,1.62
2018-08-25T15:19:05.588Z,1.90
2018-08-25T15:24:09.541Z,2.08
2018-08-25T15:29:13.004Z,2.30
2018-08-25T15:34:17.382Z,2.75
2018-08-25T15:39:20.897Z,1.52
2018-08-25T15:44:24.418Z,1.90
2018-08-25T15:49:28.052Z,1.62
2018-08-25T15:54:31.602Z,1.45
2018-08-25T15:59:35.360Z,1.40
2018-08-25T16:04:38.898Z,0.93
2018-08-25T16:09:43.638Z,1.20
2018-08-25T16:14:47.178Z,1.72
2018-08-25T16:19:50.797Z,1.20
2018-08-25T16:24:54.370Z,1.27
2018-08-25T16:29:57.856Z,1.10
2018-08-25T16:35:03.741Z,1.17
2018-08-25T16:40:07.579Z,0.82
2018-08-25T16:45:11.145Z,1.92
2018-08-25T16:50:14.644Z,1.22
2018-08-25T16:55:18.223Z,1.30
2018-08-25T17:00:21.713Z,1.05
2018-08-25T17:05:25.247Z,0.98
2018-08-25T17:10:28.743Z,1.27
2018-08-25T17:15:32.194Z,1.17
2018-08-25T17:20:35.701Z,1.65
2018-08-25T17:25:39.166Z,2.00
2018-08-25T17:30:42.632Z,1.37
2018-08-25T17:35:46.145Z,3.42
2018-08-25T17:40:49.673Z,1.70
2018-08-25T17:45:53.172Z,1.95
2018-08-25T17:50:56.692Z,1.70
2018-08-25T17:56:00.127Z,1.77
2018-08-25T18:01:03.624Z,2.42
2018-08-25T18:06:07.117Z,2.30
2018-08-25T18:11:10.649Z,2.98
2018-08-25T18:16:14.159Z,2.35
2018-08-25T18:21:17.639Z,2.40
2018-08-25T18:26:21.196Z,3.00
2018-08-25T18:31:24.674Z,1.53
2018-08-25T18:36:28.164Z,1.10
2018-08-25T18:41:31.972Z,2.47
2018-08-25T18:46:35.620Z,3.27
2018-08-25T18:51:39.116Z,2.80
2018-08-25T18:56:42.848Z,1.57
2018-08-25T19:01:46.689Z,2.53
2018-08-25T19:06:50.555Z,1.83
2018-08-25T19:11:54.374Z,1.97
2018-08-25T19:16:58.025Z,1.93
2018-08-25T19:22:01.784Z,1.30
2018-08-25T19:27:05.583Z,1.67
2018-08-25T19:32:09.473Z,1.60
2018-08-25T19:37:13.294Z,2.20
2018-08-25T19:42:17.344Z,2.53
2018-08-25T19:47:21.197Z,1.77
2018-08-25T19:52:25.063Z,2.20
2018-08-25T19:57:28.849Z,2.17
2018-08-25T20:02:32.453Z,2.67
2018-08-25T20:07:35.976Z,2.67
2018-08-25T20:12:39.481Z,2.10
2018-08-25T20:17:42.965Z,1.80
2018-08-25T20:22:46.764Z,2.23
2018-08-25T20:27:50.568Z,2.77
2018-08-25T20:32:54.409Z,2.20
2018-08-25T20:37:57.962Z,2.17
2018-08-25T20:43:01.473Z,4.43
2018-08-25T20:48:05.036Z,3.17
2018-08-25T20:53:08.599Z,2.80
2018-08-25T20:58:12.116Z,1.97
2018-08-25T21:03:15.693Z,2.30
2018-08-25T21:08:19.187Z,2.37
2018-08-25T21:13:53.842Z,1.73
2018-08-25T21:18:57.379Z,3.17
2018-08-25T21:24:00.938Z,2.70
2018-08-25T21:29:04.468Z,2.77
2018-08-25T21:34:08.027Z,2.23
2018-08-25T21:39:12.856Z,2.17
2018-08-25T21:44:16.305Z,2.73
2018-08-25T21:49:19.753Z,2.03
2018-08-25T21:54:23.264Z,2.27
2018-08-25T21:59:26.718Z,1.93
2018-08-25T22:04:30.309Z,2.37
2018-08-25T22:09:33.854Z,2.97
2018-08-25T22:14:37.365Z,2.37
2018-08-25T22:19:40.908Z,2.40
2018-08-25T22:24:44.383Z,2.33
2018-08-25T22:29:47.870Z,2.47
2018-08-25T22:34:51.348Z,1.93
2018-08-25T22:39:54.832Z,2.17
2018-08-25T22:44:58.298Z,2.07
2018-08-25T22:50:01.745Z,1.80
2018-08-25T22:55:05.258Z,2.90
2018-08-25T23:00:08.741Z,2.80
2018-08-25T23:05:12.267Z,7.40
2018-08-25T23:10:15.791Z,3.77
2018-08-25T23:15:19.250Z,2.87
2018-08-25T23:20:22.724Z,3.27
2018-08-25T23:25:26.214Z,5.83
2018-08-25T23:30:32.535Z,2.70
2018-08-25T23:35:35.901Z,3.77
2018-08-25T23:40:39.413Z,2.67
2018-08-25T23:45:43.205Z,2.03
2018-08-25T23:50:46.643Z,1.67
2018-08-25T23:55:50.076Z,2.30
